createdAt,value
2022-09-12T00:01:50.352Z,17.77
2022-09-12T00:04:17.176Z,17.80
2022-09-12T00:06:44.096Z,17.88
2022-09-12T00:09:14.171Z,17.80
2022-09-12T00:11:43.799Z,17.84
2022-09-12T00:14:12.854Z,17.73
2022-09-12T00:16:40.008Z,17.79
2022-09-12T00:19:07.796Z,17.64
2022-09-12T00:21:36.836Z,17.61
2022-09-12T00:24:04.612Z,17.50
2022-09-12T00:26:32.234Z,17.51
2022-09-12T00:28:58.952Z,17.53
2022-09-12T00:31:27.101Z,17.55
2022-09-12T00:33:56.825Z,17.51
2022-09-12T00:36:25.535Z,17.34
2022-09-12T00:38:54.757Z,17.41
2022-09-12T00:41:26.208Z,17.40
2022-09-12T00:44:24.233Z,17.37
2022-09-12T00:47:25.187Z,17.41
2022-09-12T00:50:12.802Z,17.32
2022-09-12T00:52:51.147Z,17.30
2022-09-12T00:55:22.436Z,17.42
2022-09-12T00:57:51.886Z,17.60
2022-09-12T01:00:22.630Z,17.53
2022-09-12T01:02:57.552Z,17.51
2022-09-12T01:05:25.910Z,17.55
2022-09-12T01:07:53.119Z,17.63
2022-09-12T01:10:20.351Z,17.56
2022-09-12T01:12:48.092Z,17.43
2022-09-12T01:15:14.827Z,17.50
2022-09-12T01:17:47.288Z,17.59
2022-09-12T01:20:26.611Z,17.67
2022-09-12T01:23:11.676Z,17.77
2022-09-12T01:25:59.612Z,17.69
2022-09-12T01:28:38.046Z,17.91
2022-09-12T01:31:21.464Z,17.96
2022-09-12T01:33:53.936Z,18.14
2022-09-12T01:37:04.891Z,18.32
2022-09-12T01:39:49.843Z,18.23
2022-09-12T01:42:28.399Z,18.08
2022-09-12T01:45:10.193Z,18.15
2022-09-12T01:47:42.261Z,18.00
2022-09-12T01:50:25.139Z,17.95
2022-09-12T01:53:02.343Z,18.05
2022-09-12T01:55:34.471Z,18.28
2022-09-12T01:58:09.828Z,18.26
2022-09-12T02:00:52.954Z,18.09
2022-09-12T02:03:25.665Z,18.08
2022-09-12T02:06:01.776Z,18.10
2022-09-12T02:08:37.017Z,18.04
2022-09-12T02:11:13.288Z,18.08
2022-09-12T02:13:48.428Z,18.08
2022-09-12T02:16:22.211Z,18.01
2022-09-12T02:18:57.633Z,17.86
2022-09-12T02:21:27.897Z,17.97
2022-09-12T02:23:59.561Z,17.95
2022-09-12T02:26:40.556Z,17.86
2022-09-12T02:29:07.514Z,17.83
2022-09-12T02:31:44.561Z,17.80
2022-09-12T02:34:49.439Z,17.83
2022-09-12T02:37:16.309Z,17.79
2022-09-12T02:39:45.361Z,17.86
2022-09-12T02:42:13.545Z,17.81
2022-09-12T02:44:41.254Z,17.78
2022-09-12T02:47:13.124Z,17.83
2022-09-12T02:49:39.900Z,17.91
2022-09-12T02:52:06.837Z,17.82
2022-09-12T02:54:33.735Z,17.80
2022-09-12T02:57:00.474Z,17.80
2022-09-12T02:59:27.629Z,17.85
2022-09-12T03:02:12.099Z,17.89
2022-09-12T03:05:08.539Z,17.83
2022-09-12T03:08:00.272Z,17.88
2022-09-12T03:10:41.209Z,17.84
2022-09-12T03:13:33.334Z,17.94
2022-09-12T03:16:16.916Z,17.98
2022-09-12T03:18:53.989Z,18.08
2022-09-12T03:21:30.567Z,17.96
2022-09-12T03:24:05.213Z,18.08
2022-09-12T03:26:36.506Z,18.12
2022-09-12T03:29:05.384Z,18.15
2022-09-12T03:31:32.062Z,18.16
2022-09-12T03:34:00.192Z,18.16
2022-09-12T03:36:29.803Z,18.06
2022-09-12T03:38:57.377Z,18.10
2022-09-12T03:41:24.233Z,18.02
2022-09-12T03:43:51.143Z,17.96
2022-09-12T03:46:17.849Z,17.97
2022-09-12T03:48:44.618Z,17.95
2022-09-12T03:51:11.683Z,17.93
2022-09-12T03:53:38.484Z,17.98
2022-09-12T03:56:10.511Z,18.02
2022-09-12T03:58:37.827Z,17.96
2022-09-12T04:01:13.375Z,17.94
2022-09-12T04:03:41.653Z,17.99
2022-09-12T04:06:10.347Z,17.95
2022-09-12T04:08:41.188Z,17.99
2022-09-12T04:11:13.452Z,18.06
2022-09-12T04:13:42.588Z,18.03
2022-09-12T04:16:09.537Z,18.01
2022-09-12T04:18:36.848Z,18.16
2022-09-12T04:21:08.759Z,18.20
2022-09-12T04:23:35.744Z,18.22
2022-09-12T04:26:06.539Z,18.31
2022-09-12T04:28:35.159Z,18.22
2022-09-12T04:31:07.707Z,18.31
2022-09-12T04:33:36.156Z,18.34
2022-09-12T04:36:04.754Z,18.40
2022-09-12T04:38:31.838Z,18.42
2022-09-12T04:40:58.543Z,18.42
2022-09-12T04:43:25.369Z,18.52
2022-09-12T04:45:52.095Z,18.55
2022-09-12T04:48:19.123Z,18.65
2022-09-12T04:50:45.815Z,18.79
2022-09-12T04:53:12.495Z,18.78
2022-09-12T04:55:39.125Z,18.76
2022-09-12T04:58:05.772Z,18.65
2022-09-12T05:00:33.435Z,18.79
2022-09-12T05:03:00.367Z,18.83
2022-09-12T05:05:27.581Z,19.11
2022-09-12T05:07:54.259Z,19.20
2022-09-12T05:10:20.936Z,19.15
2022-09-12T05:12:48.407Z,19.23
2022-09-12T05:15:15.200Z,19.59
2022-09-12T05:17:41.853Z,19.73
2022-09-12T05:20:09.589Z,19.76
2022-09-12T05:22:36.343Z,19.94
2022-09-12T05:25:03.133Z,19.68
2022-09-12T05:27:29.869Z,19.79
2022-09-12T05:29:56.693Z,20.13
2022-09-12T05:32:23.403Z,20.11
2022-09-12T05:34:50.958Z,20.20
2022-09-12T05:37:17.749Z,19.98
2022-09-12T05:39:44.479Z,20.27
2022-09-12T05:42:11.988Z,20.46
2022-09-12T05:44:38.709Z,20.57
2022-09-12T05:47:05.614Z,20.57
2022-09-12T05:49:32.323Z,20.16
2022-09-12T05:51:59.045Z,20.14
2022-09-12T05:54:31.372Z,20.04
2022-09-12T05:56:58.568Z,20.54
2022-09-12T05:59:25.609Z,20.98
2022-09-12T06:01:52.528Z,21.39
2022-09-12T06:04:19.249Z,21.44
2022-09-12T06:06:46.471Z,21.93
2022-09-12T06:09:15.519Z,21.94
2022-09-12T06:11:43.061Z,21.86
2022-09-12T06:14:12.838Z,22.13
2022-09-12T06:16:40.084Z,22.24
2022-09-12T06:19:13.127Z,22.17
2022-09-12T06:21:40.141Z,22.51
2022-09-12T06:24:07.758Z,22.66
2022-09-12T06:26:35.632Z,22.47
2022-09-12T06:29:02.451Z,22.64
2022-09-12T06:31:31.971Z,22.85
2022-09-12T06:34:02.121Z,22.93
2022-09-12T06:36:34.136Z,23.31
2022-09-12T06:39:04.266Z,23.38
2022-09-12T06:41:32.064Z,23.92
2022-09-12T06:43:59.539Z,23.70
2022-09-12T06:46:27.067Z,23.43
2022-09-12T06:48:56.196Z,24.41
2022-09-12T06:51:23.162Z,23.98
2022-09-12T06:53:50.372Z,24.51
2022-09-12T06:56:22.540Z,24.27
2022-09-12T06:58:50.740Z,24.41
2022-09-12T07:01:23.410Z,24.47
2022-09-12T07:03:59.434Z,24.66
2022-09-12T07:06:32.172Z,24.57
2022-09-12T07:09:00.451Z,24.51
2022-09-12T07:11:32.193Z,24.45
2022-09-12T07:14:00.904Z,24.77
2022-09-12T07:16:28.392Z,24.97
2022-09-12T07:18:57.758Z,24.76
2022-09-12T07:21:24.810Z,25.16
2022-09-12T07:23:52.159Z,25.26
2022-09-12T07:26:19.286Z,24.89
2022-09-12T07:28:46.071Z,25.01
2022-09-12T07:31:15.238Z,24.91
2022-09-12T07:33:42.949Z,25.52
2022-09-12T07:36:15.144Z,25.62
2022-09-12T07:38:43.813Z,25.23
2022-09-12T07:41:21.481Z,25.47
2022-09-12T07:43:48.379Z,25.78
2022-09-12T07:46:15.271Z,25.41
2022-09-12T07:48:42.019Z,25.96
2022-09-12T07:51:10.942Z,25.99
2022-09-12T07:53:40.996Z,26.20
2022-09-12T07:56:10.432Z,26.73
2022-09-12T07:58:39.215Z,26.76
2022-09-12T08:01:07.466Z,27.34
2022-09-12T08:03:37.296Z,26.34
2022-09-12T08:06:04.921Z,26.44
2022-09-12T08:08:31.768Z,26.60
2022-09-12T08:11:06.050Z,26.68
2022-09-12T08:13:34.755Z,27.09
2022-09-12T08:16:04.992Z,27.01
2022-09-12T08:18:32.858Z,26.92
2022-09-12T08:21:01.606Z,27.68
2022-09-12T08:23:29.409Z,26.82
2022-09-12T08:26:05.280Z,27.30
2022-09-12T08:28:34.480Z,27.23
2022-09-12T08:31:06.258Z,27.00
2022-09-12T08:33:33.763Z,26.91
2022-09-12T08:36:07.697Z,26.91
2022-09-12T08:38:35.988Z,27.39
2022-09-12T08:41:18.056Z,27.68
2022-09-12T08:44:03.578Z,27.41
2022-09-12T08:46:39.125Z,27.39
2022-09-12T08:49:12.166Z,27.19
2022-09-12T08:51:40.116Z,27.35
2022-09-12T08:54:20.556Z,27.31
2022-09-12T08:56:48.408Z,27.86
2022-09-12T08:59:15.784Z,28.44
2022-09-12T09:01:45.730Z,27.16
2022-09-12T09:04:41.727Z,27.69
2022-09-12T09:07:19.188Z,28.11
2022-09-12T09:10:07.906Z,28.42
2022-09-12T09:12:55.746Z,28.62
2022-09-12T09:15:34.545Z,28.40
2022-09-12T09:18:32.980Z,28.69
2022-09-12T09:21:10.487Z,28.24
2022-09-12T09:23:45.030Z,28.35
2022-09-12T09:26:28.289Z,28.95
2022-09-12T09:29:10.401Z,29.33
2022-09-12T09:31:42.316Z,29.11
2022-09-12T09:34:23.651Z,28.83
2022-09-12T09:37:09.790Z,28.66
2022-09-12T09:39:45.261Z,29.35
2022-09-12T09:42:18.224Z,28.88
2022-09-12T09:44:48.392Z,28.19
2022-09-12T09:47:16.573Z,28.94
2022-09-12T09:49:43.330Z,29.04
2022-09-12T09:52:14.952Z,29.64
2022-09-12T09:54:49.586Z,28.58
2022-09-12T09:57:34.656Z,28.07
2022-09-12T10:00:33.020Z,27.49
2022-09-12T10:03:14.595Z,28.76
2022-09-12T10:05:51.363Z,28.58
2022-09-12T10:08:38.039Z,28.17
2022-09-12T10:11:19.699Z,29.08
2022-09-12T10:14:05.456Z,29.57
2022-09-12T10:16:34.764Z,30.11
2022-09-12T10:19:03.307Z,30.68
2022-09-12T10:21:41.282Z,30.13
2022-09-12T10:24:42.409Z,28.53
2022-09-12T10:27:12.071Z,28.52
2022-09-12T10:29:52.451Z,29.26
2022-09-12T10:32:36.214Z,29.26
2022-09-12T10:35:09.139Z,29.17
2022-09-12T10:37:41.544Z,29.05
2022-09-12T10:40:23.992Z,29.68
2022-09-12T10:42:53.333Z,29.83
2022-09-12T10:45:24.812Z,29.81
2022-09-12T10:47:53.660Z,29.56
2022-09-12T10:50:26.843Z,29.07
2022-09-12T10:53:19.299Z,29.16
2022-09-12T10:55:56.273Z,29.64
2022-09-12T10:58:32.433Z,30.41
2022-09-12T11:01:16.791Z,30.35
2022-09-12T11:04:01.903Z,30.50
2022-09-12T11:06:54.730Z,30.64
2022-09-12T11:09:31.417Z,30.25
2022-09-12T11:11:58.082Z,30.49
2022-09-12T11:14:52.524Z,30.41
2022-09-12T11:17:25.493Z,30.07
2022-09-12T11:20:21.261Z,30.57
2022-09-12T11:23:14.021Z,30.14
2022-09-12T11:26:04.441Z,30.20
2022-09-12T11:28:34.618Z,30.42
2022-09-12T11:31:16.737Z,30.36
2022-09-12T11:33:53.092Z,30.34
2022-09-12T11:36:32.340Z,30.66
2022-09-12T11:39:22.169Z,30.42
2022-09-12T11:41:57.786Z,29.95
2022-09-12T11:44:40.357Z,29.97
2022-09-12T11:47:14.639Z,30.24
2022-09-12T11:49:41.232Z,29.83
2022-09-12T11:52:16.294Z,29.98
2022-09-12T11:54:52.796Z,29.87
2022-09-12T11:57:38.861Z,30.41
2022-09-12T12:00:06.204Z,30.19
2022-09-12T12:02:57.779Z,30.38
2022-09-12T12:05:28.964Z,30.72
2022-09-12T12:07:58.792Z,30.34
2022-09-12T12:10:39.179Z,30.19
2022-09-12T12:13:16.484Z,29.81
2022-09-12T12:15:53.629Z,30.78
2022-09-12T12:18:24.958Z,30.75
2022-09-12T12:20:53.837Z,30.16
2022-09-12T12:23:31.578Z,30.25
2022-09-12T12:26:01.073Z,30.62
2022-09-12T12:28:58.966Z,29.91
2022-09-12T12:31:25.867Z,30.55
2022-09-12T12:33:54.923Z,30.63
2022-09-12T12:36:40.448Z,30.78
2022-09-12T12:39:32.074Z,30.37
2022-09-12T12:42:00.079Z,30.71
2022-09-12T12:44:45.079Z,31.04
2022-09-12T12:47:27.672Z,30.64
2022-09-12T12:50:14.579Z,30.83
2022-09-12T12:53:06.015Z,30.69
2022-09-12T12:55:41.672Z,30.47
2022-09-12T12:58:31.975Z,29.87
2022-09-12T13:01:19.591Z,29.92
2022-09-12T13:03:54.639Z,29.98
2022-09-12T13:06:39.835Z,30.56
2022-09-12T13:09:09.497Z,31.48
2022-09-12T13:11:39.082Z,30.46
2022-09-12T13:14:27.389Z,29.27
2022-09-12T13:16:58.765Z,28.64
2022-09-12T13:19:32.568Z,29.87
2022-09-12T13:22:05.145Z,30.25
2022-09-12T13:24:32.496Z,31.45
2022-09-12T13:26:59.564Z,30.94
2022-09-12T13:29:28.099Z,30.97
2022-09-12T13:32:03.939Z,30.10
2022-09-12T13:34:37.392Z,29.16
2022-09-12T13:37:10.223Z,29.58
2022-09-12T13:39:46.305Z,30.57
2022-09-12T13:42:41.285Z,32.45
2022-09-12T13:45:15.120Z,31.93
2022-09-12T13:47:44.617Z,31.88
2022-09-12T13:50:21.425Z,31.51
2022-09-12T13:55:53.723Z,32.43
2022-09-12T13:58:24.482Z,32.54
2022-09-12T14:01:01.601Z,31.10
2022-09-12T14:03:51.171Z,30.97
2022-09-12T14:06:20.215Z,30.02
2022-09-12T14:08:48.381Z,28.89
2022-09-12T14:11:28.739Z,27.69
2022-09-12T14:13:56.097Z,27.54
2022-09-12T14:16:24.167Z,27.46
2022-09-12T14:18:54.697Z,26.86
2022-09-12T14:21:24.643Z,27.02
2022-09-12T14:23:51.524Z,26.36
2022-09-12T14:26:18.783Z,26.20
2022-09-12T14:28:49.784Z,25.97
2022-09-12T14:31:22.229Z,26.18
2022-09-12T14:34:09.007Z,26.19
2022-09-12T14:36:42.389Z,26.29
2022-09-12T14:39:22.366Z,26.34
2022-09-12T14:41:50.105Z,26.48
2022-09-12T14:44:24.799Z,26.67
2022-09-12T14:46:51.953Z,26.59
2022-09-12T14:49:21.378Z,26.18
2022-09-12T14:51:51.445Z,26.21
2022-09-12T14:54:30.425Z,26.07
2022-09-12T14:56:59.749Z,25.71
2022-09-12T14:59:35.476Z,25.77
2022-09-12T15:02:17.136Z,25.73
2022-09-12T15:04:47.448Z,25.67
2022-09-12T15:07:35.326Z,25.57
2022-09-12T15:10:05.544Z,25.68
2022-09-12T15:12:32.285Z,25.47
2022-09-12T15:15:17.200Z,25.24
2022-09-12T15:17:44.107Z,25.19
2022-09-12T15:20:12.131Z,25.30
2022-09-12T15:22:39.749Z,25.24
2022-09-12T15:25:07.028Z,25.26
2022-09-12T15:27:33.755Z,25.45
2022-09-12T15:30:00.584Z,25.18
2022-09-12T15:32:30.183Z,25.08
2022-09-12T15:34:57.039Z,25.05
2022-09-12T15:37:24.861Z,24.99
2022-09-12T15:39:52.058Z,24.91
2022-09-12T15:42:27.987Z,24.93
2022-09-12T15:44:58.398Z,24.95
2022-09-12T15:47:27.407Z,24.80
2022-09-12T15:49:54.075Z,24.73
2022-09-12T15:52:20.757Z,24.83
2022-09-12T15:54:47.598Z,24.63
2022-09-12T15:57:14.323Z,24.46
2022-09-12T15:59:40.970Z,24.59
2022-09-12T16:02:09.995Z,24.29
2022-09-12T16:04:41.693Z,24.06
2022-09-12T16:07:08.345Z,24.00
2022-09-12T16:09:35.102Z,24.27
2022-09-12T16:12:02.152Z,23.67
2022-09-12T16:14:29.024Z,24.02
2022-09-12T16:16:58.471Z,24.09
2022-09-12T16:19:26.540Z,23.77
2022-09-12T16:21:53.199Z,23.61
2022-09-12T16:24:19.897Z,23.53
2022-09-12T16:26:46.656Z,23.64
2022-09-12T16:29:14.529Z,23.71
2022-09-12T16:31:41.204Z,23.60
2022-09-12T16:34:07.999Z,23.60
2022-09-12T16:36:34.689Z,23.72
2022-09-12T16:39:01.513Z,23.28
2022-09-12T16:41:28.414Z,23.33
2022-09-12T16:43:55.794Z,23.15
2022-09-12T16:46:25.270Z,23.21
2022-09-12T16:48:54.525Z,23.11
2022-09-12T16:51:30.995Z,23.21
2022-09-12T16:53:58.012Z,23.10
2022-09-12T16:56:25.821Z,23.06
2022-09-12T16:58:53.336Z,22.94
2022-09-12T17:01:24.858Z,23.00
2022-09-12T17:03:56.670Z,22.76
2022-09-12T17:06:25.281Z,22.78
2022-09-12T17:08:54.167Z,22.70
2022-09-12T17:11:23.583Z,22.64
2022-09-12T17:14:04.321Z,22.70
2022-09-12T17:16:33.448Z,22.58
2022-09-12T17:19:00.232Z,22.67
2022-09-12T17:21:27.156Z,22.68
2022-09-12T17:23:54.383Z,22.68
2022-09-12T17:26:21.095Z,22.65
2022-09-12T17:28:47.868Z,22.45
2022-09-12T17:31:15.173Z,22.45
2022-09-12T17:33:42.334Z,22.58
2022-09-12T17:36:12.204Z,22.59
2022-09-12T17:38:39.957Z,22.20
2022-09-12T17:41:08.348Z,22.61
2022-09-12T17:43:39.578Z,22.53
2022-09-12T17:46:06.596Z,22.58
2022-09-12T17:48:33.723Z,22.43
2022-09-12T17:51:10.804Z,22.50
2022-09-12T17:53:38.333Z,22.37
2022-09-12T17:56:06.124Z,22.39
2022-09-12T17:58:33.938Z,22.36
2022-09-12T18:01:37.910Z,22.31
2022-09-12T18:04:04.853Z,22.26
2022-09-12T18:06:32.960Z,22.22
2022-09-12T18:09:06.044Z,22.56
2022-09-12T18:11:33.370Z,22.56
2022-09-12T18:14:00.592Z,22.63
2022-09-12T18:16:28.589Z,22.61
2022-09-12T18:18:55.557Z,22.30
2022-09-12T18:21:22.308Z,22.13
2022-09-12T18:23:49.108Z,21.99
2022-09-12T18:26:15.988Z,21.83
2022-09-12T18:28:44.612Z,21.81
2022-09-12T18:31:17.563Z,21.74
2022-09-12T18:33:44.368Z,21.93
2022-09-12T18:36:14.331Z,22.00
2022-09-12T18:38:42.347Z,21.71
2022-09-12T18:41:15.027Z,21.66
2022-09-12T18:43:42.438Z,21.54
2022-09-12T18:46:17.833Z,21.47
2022-09-12T18:48:45.790Z,21.53
2022-09-12T18:51:14.781Z,21.66
2022-09-12T18:53:42.559Z,21.55
2022-09-12T18:56:12.221Z,21.41
2022-09-12T18:58:40.740Z,21.36
2022-09-12T19:01:16.610Z,21.30
2022-09-12T19:03:43.987Z,21.28
2022-09-12T19:06:31.236Z,21.42
2022-09-12T19:09:00.157Z,21.19
2022-09-12T19:11:29.477Z,20.92
2022-09-12T19:13:56.742Z,20.89
2022-09-12T19:16:26.992Z,20.89
2022-09-12T19:18:56.096Z,20.87
2022-09-12T19:21:26.192Z,20.83
2022-09-12T19:23:55.967Z,20.85
2022-09-12T19:26:23.051Z,20.73
2022-09-12T19:28:49.949Z,20.69
2022-09-12T19:31:20.200Z,20.71
2022-09-12T19:33:48.221Z,20.70
2022-09-12T19:36:41.164Z,20.62
2022-09-12T19:39:07.178Z,20.76
2022-09-12T19:41:34.914Z,20.80
2022-09-12T19:44:02.108Z,20.73
2022-09-12T19:46:28.841Z,20.77
2022-09-12T19:48:55.677Z,20.75
2022-09-12T19:51:24.280Z,20.66
2022-09-12T19:53:51.359Z,20.69
2022-09-12T19:56:19.002Z,20.58
2022-09-12T19:58:49.856Z,20.54
2022-09-12T20:01:30.214Z,20.45
2022-09-12T20:03:58.176Z,20.25
2022-09-12T20:06:26.274Z,20.16
2022-09-12T20:08:53.068Z,20.10
2022-09-12T20:11:23.955Z,20.21
2022-09-12T20:13:51.152Z,19.79
2022-09-12T20:16:22.362Z,20.21
2022-09-12T20:18:55.714Z,19.93
2022-09-12T20:21:25.510Z,19.99
2022-09-12T20:23:52.724Z,20.05
2022-09-12T20:26:20.465Z,20.13
2022-09-12T20:28:47.432Z,20.13
2022-09-12T20:31:16.658Z,20.17
2022-09-12T20:33:43.971Z,20.30
2022-09-12T20:36:17.731Z,20.17
2022-09-12T20:38:57.150Z,19.87
2022-09-12T20:41:25.629Z,19.98
2022-09-12T20:43:53.420Z,20.05
2022-09-12T20:46:22.166Z,20.06
2022-09-12T20:48:50.006Z,19.99
2022-09-12T20:51:17.052Z,19.76
2022-09-12T20:53:43.775Z,19.94
2022-09-12T20:56:10.532Z,19.65
2022-09-12T20:58:40.505Z,19.56
2022-09-12T21:01:11.816Z,19.47
2022-09-12T21:03:39.837Z,19.62
2022-09-12T21:06:08.418Z,19.58
2022-09-12T21:08:36.192Z,19.67
2022-09-12T21:11:03.616Z,19.63
2022-09-12T21:13:30.299Z,19.52
2022-09-12T21:16:02.072Z,19.41
2022-09-12T21:18:29.383Z,19.53
2022-09-12T21:20:56.826Z,19.49
2022-09-12T21:23:25.401Z,19.59
2022-09-12T21:25:52.919Z,19.82
2022-09-12T21:28:20.507Z,19.86
2022-09-12T21:30:51.854Z,19.81
2022-09-12T21:33:20.290Z,19.77
2022-09-12T21:35:47.594Z,19.39
2022-09-12T21:38:18.645Z,19.64
2022-09-12T21:40:46.768Z,19.72
2022-09-12T21:43:14.173Z,19.81
2022-09-12T21:45:40.930Z,19.86
2022-09-12T21:48:07.785Z,20.00
2022-09-12T21:50:34.716Z,19.93
2022-09-12T21:53:01.641Z,19.95
2022-09-12T21:55:28.419Z,19.77
2022-09-12T21:57:55.596Z,19.79
2022-09-12T22:00:23.025Z,19.79
2022-09-12T22:02:49.849Z,19.82
2022-09-12T22:05:17.273Z,19.72
2022-09-12T22:07:44.045Z,19.63
2022-09-12T22:10:11.137Z,19.64
2022-09-12T22:12:37.781Z,19.59
2022-09-12T22:15:22.831Z,19.60
2022-09-12T22:17:52.046Z,19.29
2022-09-12T22:20:18.877Z,19.27
2022-09-12T22:23:03.967Z,19.38
2022-09-12T22:25:30.997Z,19.19
2022-09-12T22:27:58.430Z,18.88
2022-09-12T22:30:27.990Z,18.61
2022-09-12T22:32:54.762Z,18.71
2022-09-12T22:35:21.492Z,18.70
2022-09-12T22:37:48.184Z,18.69
2022-09-12T22:40:15.833Z,18.54
2022-09-12T22:42:42.946Z,18.74
2022-09-12T22:45:10.055Z,18.90
2022-09-12T22:47:36.931Z,19.02
2022-09-12T22:50:04.366Z,18.97
2022-09-12T22:52:31.150Z,18.88
2022-09-12T22:54:58.679Z,19.02
2022-09-12T22:57:25.842Z,19.13
2022-09-12T22:59:52.535Z,18.88
2022-09-12T23:02:19.250Z,19.18
2022-09-12T23:04:47.063Z,19.24
2022-09-12T23:07:13.800Z,19.12
2022-09-12T23:09:40.655Z,19.03
2022-09-12T23:12:07.525Z,19.22
2022-09-12T23:14:36.575Z,18.95
2022-09-12T23:17:04.753Z,18.97
2022-09-12T23:19:31.423Z,19.04
2022-09-12T23:21:58.122Z,19.09
2022-09-12T23:24:24.834Z,18.86
2022-09-12T23:26:51.505Z,18.84
2022-09-12T23:29:18.194Z,18.70
2022-09-12T23:31:45.079Z,18.53
2022-09-12T23:34:11.764Z,18.81
2022-09-12T23:36:38.458Z,18.85
2022-09-12T23:39:05.394Z,18.79
2022-09-12T23:41:32.324Z,18.63
2022-09-12T23:43:59.096Z,18.46
2022-09-12T23:46:25.917Z,18.52
2022-09-12T23:48:53.651Z,18.59
2022-09-12T23:51:21.908Z,18.80
2022-09-12T23:53:49.014Z,18.66
2022-09-12T23:56:15.949Z,18.69
2022-09-12T23:58:42.731Z,18.82
